createdAt,value
2023-02-12T00:01:29.852Z,3.17
2023-02-12T00:04:02.005Z,3.30
2023-02-12T00:06:32.857Z,3.13
2023-02-12T00:08:59.715Z,3.40
2023-02-12T00:11:28.568Z,3.33
2023-02-12T00:13:56.103Z,3.17
2023-02-12T00:16:29.195Z,3.87
2023-02-12T00:18:58.522Z,4.35
2023-02-12T00:21:25.445Z,5.15
2023-02-12T00:23:55.914Z,4.13
2023-02-12T00:26:23.569Z,3.43
2023-02-12T00:28:57.064Z,3.35
2023-02-12T00:31:27.280Z,3.05
2023-02-12T00:34:02.484Z,3.33
2023-02-12T00:39:22.364Z,2.95
2023-02-12T00:44:40.920Z,3.30
2023-02-12T00:49:58.805Z,3.08
2023-02-12T00:52:29.226Z,2.65
2023-02-12T00:54:55.869Z,2.45
2023-02-12T00:57:22.601Z,3.08
2023-02-12T00:59:49.333Z,2.97
2023-02-12T01:02:20.556Z,2.53
2023-02-12T01:04:47.412Z,2.78
2023-02-12T01:07:17.148Z,2.95
2023-02-12T01:09:43.833Z,3.37
2023-02-12T01:12:13.137Z,2.90
2023-02-12T01:14:45.011Z,3.30
2023-02-12T01:17:11.740Z,2.73
2023-02-12T01:19:41.125Z,3.83
2023-02-12T01:22:07.946Z,3.70
2023-02-12T01:24:36.975Z,2.93
2023-02-12T01:27:04.983Z,2.90
2023-02-12T01:29:31.606Z,2.90
2023-02-12T01:34:51.708Z,2.42
2023-02-12T01:37:18.377Z,2.53
2023-02-12T01:39:45.036Z,2.55
2023-02-12T01:45:13.066Z,2.25
2023-02-12T01:56:19.361Z,3.05
2023-02-12T01:58:48.304Z,3.10
2023-02-12T02:01:21.518Z,3.97
2023-02-12T02:03:52.054Z,4.18
2023-02-12T02:06:24.287Z,2.92
2023-02-12T02:08:51.298Z,2.88
2023-02-12T02:11:38.632Z,3.88
2023-02-12T02:14:24.349Z,2.40
2023-02-12T02:17:07.954Z,2.83
2023-02-12T02:19:59.715Z,3.37
2023-02-12T02:23:04.746Z,3.40
2023-02-12T02:25:53.841Z,2.60
2023-02-12T02:28:47.902Z,2.53
2023-02-12T02:31:25.752Z,3.70
2023-02-12T02:34:08.890Z,2.70
2023-02-12T02:36:59.215Z,2.60
2023-02-12T02:39:54.617Z,3.30
2023-02-12T02:42:48.252Z,2.17
2023-02-12T02:45:42.813Z,2.47
2023-02-12T02:48:18.442Z,2.63
2023-02-12T02:50:51.574Z,2.47
2023-02-12T02:53:28.487Z,2.63
2023-02-12T02:55:58.891Z,3.20
2023-02-12T02:58:50.263Z,3.47
2023-02-12T03:01:42.611Z,2.90
2023-02-12T03:04:14.683Z,3.08
2023-02-12T03:06:47.019Z,3.45
2023-02-12T03:09:38.532Z,3.30
2023-02-12T03:12:17.177Z,2.50
2023-02-12T03:14:59.515Z,2.55
2023-02-12T03:17:33.980Z,2.63
2023-02-12T03:20:12.806Z,3.03
2023-02-12T03:22:43.706Z,3.90
2023-02-12T03:25:15.005Z,3.28
2023-02-12T03:27:47.387Z,4.03
2023-02-12T03:30:14.853Z,2.47
2023-02-12T03:32:47.139Z,2.33
2023-02-12T03:35:40.317Z,2.67
2023-02-12T03:38:30.494Z,3.03
2023-02-12T03:41:04.843Z,3.40
2023-02-12T03:43:46.266Z,2.08
2023-02-12T03:46:32.453Z,2.70
2023-02-12T03:49:01.088Z,2.53
2023-02-12T03:51:34.718Z,2.13
2023-02-12T03:54:02.597Z,3.47
2023-02-12T03:56:44.179Z,2.75
2023-02-12T03:59:11.667Z,2.50
2023-02-12T04:01:38.566Z,3.00
2023-02-12T04:04:08.554Z,2.42
2023-02-12T04:06:39.011Z,2.45
2023-02-12T04:09:10.173Z,2.47
2023-02-12T04:11:51.929Z,2.58
2023-02-12T04:14:59.747Z,2.43
2023-02-12T04:17:47.448Z,3.83
2023-02-12T04:20:51.447Z,2.45
2023-02-12T04:23:33.133Z,2.38
2023-02-12T04:26:27.647Z,2.10
2023-02-12T04:29:09.203Z,2.47
2023-02-12T04:32:03.779Z,2.58
2023-02-12T04:34:55.126Z,3.28
2023-02-12T04:37:41.562Z,3.70
2023-02-12T04:40:13.562Z,2.38
2023-02-12T04:42:45.298Z,2.05
2023-02-12T04:45:14.373Z,2.87
2023-02-12T04:47:41.066Z,2.07
2023-02-12T04:50:08.906Z,2.90
2023-02-12T04:52:35.552Z,2.75
2023-02-12T04:55:02.250Z,2.60
2023-02-12T04:57:29.090Z,2.93
2023-02-12T04:59:55.796Z,2.72
2023-02-12T05:02:22.757Z,2.58
2023-02-12T05:04:50.551Z,2.83
2023-02-12T05:07:17.320Z,2.75
2023-02-12T05:09:44.031Z,2.75
2023-02-12T05:12:10.813Z,2.43
2023-02-12T05:14:37.579Z,2.92
2023-02-12T05:17:04.294Z,3.17
2023-02-12T05:19:31.142Z,2.75
2023-02-12T05:21:57.845Z,2.58
2023-02-12T05:24:24.587Z,3.13
2023-02-12T05:26:51.553Z,2.53
2023-02-12T05:29:18.673Z,3.17
2023-02-12T05:31:45.457Z,2.77
2023-02-12T05:34:12.778Z,2.67
2023-02-12T05:36:40.225Z,2.58
2023-02-12T05:39:07.411Z,1.75
2023-02-12T05:41:35.584Z,2.38
2023-02-12T05:44:04.271Z,2.40
2023-02-12T05:46:31.307Z,2.85
2023-02-12T05:48:58.100Z,2.60
2023-02-12T05:51:27.944Z,3.22
2023-02-12T05:54:00.245Z,3.40
2023-02-12T05:56:30.637Z,2.50
2023-02-12T05:59:03.632Z,2.92
2023-02-12T06:01:39.197Z,2.50
2023-02-12T06:04:08.493Z,2.57
2023-02-12T06:06:35.374Z,2.47
2023-02-12T06:09:02.440Z,2.25
2023-02-12T06:11:29.581Z,3.45
2023-02-12T06:13:56.233Z,3.08
2023-02-12T06:16:25.907Z,3.13
2023-02-12T06:18:53.864Z,2.88
2023-02-12T06:21:22.142Z,2.42
2023-02-12T06:23:49.545Z,2.23
2023-02-12T06:26:16.832Z,3.08
2023-02-12T06:28:43.831Z,2.47
2023-02-12T06:31:32.039Z,3.65
2023-02-12T06:34:02.091Z,3.70
2023-02-12T06:36:29.170Z,3.58
2023-02-12T06:38:56.233Z,2.88
2023-02-12T06:41:23.166Z,3.53
2023-02-12T06:43:50.363Z,2.30
2023-02-12T06:46:17.978Z,3.22
2023-02-12T06:48:46.052Z,4.47
2023-02-12T06:51:16.834Z,3.28
2023-02-12T06:53:44.560Z,3.25
2023-02-12T06:56:13.300Z,3.40
2023-02-12T06:58:47.991Z,4.88
2023-02-12T07:01:21.379Z,3.42
2023-02-12T07:03:50.822Z,3.90
2023-02-12T07:06:18.175Z,4.10
2023-02-12T07:08:44.962Z,3.83
2023-02-12T07:11:12.144Z,3.60
2023-02-12T07:13:41.722Z,3.17
2023-02-12T07:16:11.377Z,4.55
2023-02-12T07:18:38.659Z,4.40
2023-02-12T07:21:07.701Z,3.22
2023-02-12T07:23:35.632Z,3.92
2023-02-12T07:26:05.941Z,4.30
2023-02-12T07:28:36.128Z,4.30
2023-02-12T07:31:17.275Z,3.80
2023-02-12T07:33:44.109Z,4.73
2023-02-12T07:36:15.477Z,5.85
2023-02-12T07:38:42.528Z,4.38
2023-02-12T07:41:13.761Z,3.92
2023-02-12T07:43:42.137Z,3.63
2023-02-12T07:46:14.544Z,4.13
2023-02-12T07:48:41.663Z,3.92
2023-02-12T07:51:10.537Z,4.15
2023-02-12T07:53:37.620Z,6.30
2023-02-12T07:56:13.073Z,4.57
2023-02-12T07:58:41.029Z,3.30
2023-02-12T08:01:17.119Z,3.57
2023-02-12T08:03:44.931Z,4.10
2023-02-12T08:06:16.537Z,4.22
2023-02-12T08:08:44.633Z,3.92
2023-02-12T08:11:12.867Z,4.20
2023-02-12T08:13:40.090Z,4.20
2023-02-12T08:16:13.739Z,4.73
2023-02-12T08:18:40.790Z,5.57
2023-02-12T08:21:10.150Z,6.03
2023-02-12T08:23:37.149Z,4.30
2023-02-12T08:26:22.557Z,5.40
2023-02-12T08:28:53.505Z,5.03
2023-02-12T08:31:26.829Z,3.63
2023-02-12T08:33:55.279Z,5.30
2023-02-12T08:36:40.544Z,4.63
2023-02-12T08:39:08.297Z,5.00
2023-02-12T08:41:35.203Z,4.00
2023-02-12T08:44:04.176Z,4.87
2023-02-12T08:46:36.464Z,5.60
2023-02-12T08:49:10.132Z,3.95
2023-02-12T08:51:39.439Z,5.85
2023-02-12T08:54:09.551Z,4.18
2023-02-12T08:56:36.700Z,4.78
2023-02-12T08:59:05.010Z,5.20
2023-02-12T09:01:33.579Z,4.43
2023-02-12T09:04:11.046Z,5.43
2023-02-12T09:06:37.702Z,5.07
2023-02-12T09:09:05.798Z,3.95
2023-02-12T09:11:35.712Z,7.93
2023-02-12T09:14:05.045Z,6.40
2023-02-12T09:16:34.054Z,6.03
2023-02-12T09:19:01.951Z,6.97
2023-02-12T09:21:28.803Z,8.30
2023-02-12T09:23:55.997Z,6.72
2023-02-12T09:26:26.240Z,6.67
2023-02-12T09:28:53.999Z,6.45
2023-02-12T09:31:26.524Z,7.27
2023-02-12T09:33:55.768Z,7.10
2023-02-12T09:36:22.699Z,5.60
2023-02-12T09:38:49.951Z,6.85
2023-02-12T09:41:34.186Z,6.60
2023-02-12T09:44:11.528Z,6.22
2023-02-12T09:46:54.831Z,5.38
2023-02-12T09:49:42.095Z,5.93
2023-02-12T09:52:17.372Z,6.10
2023-02-12T09:54:45.051Z,4.95
2023-02-12T09:57:36.119Z,5.57
2023-02-12T10:00:06.632Z,5.32
2023-02-12T10:02:36.656Z,6.18
2023-02-12T10:05:05.132Z,5.88
2023-02-12T10:07:44.144Z,5.80
2023-02-12T10:10:49.919Z,5.87
2023-02-12T10:13:37.827Z,5.97
2023-02-12T10:16:42.398Z,6.25
2023-02-12T10:19:34.488Z,5.83
2023-02-12T10:22:57.217Z,5.77
2023-02-12T10:25:54.093Z,6.10
2023-02-12T10:28:31.724Z,5.13
2023-02-12T10:31:09.260Z,5.93
2023-02-12T10:33:42.280Z,5.68
2023-02-12T10:36:45.304Z,6.00
2023-02-12T10:39:14.739Z,5.45
2023-02-12T10:42:00.677Z,5.30
2023-02-12T10:44:28.357Z,6.32
2023-02-12T10:46:55.245Z,5.35
2023-02-12T10:49:22.125Z,5.50
2023-02-12T10:52:09.930Z,6.30
2023-02-12T10:54:45.542Z,7.30
2023-02-12T10:57:15.094Z,4.47
2023-02-12T10:59:43.566Z,5.77
2023-02-12T11:02:27.738Z,6.53
2023-02-12T11:04:58.298Z,4.38
2023-02-12T11:07:25.992Z,4.43
2023-02-12T11:09:54.921Z,4.70
2023-02-12T11:12:48.021Z,4.78
2023-02-12T11:15:19.372Z,4.20
2023-02-12T11:18:05.858Z,5.03
2023-02-12T11:20:48.794Z,5.20
2023-02-12T11:23:39.510Z,5.05
2023-02-12T11:26:22.925Z,6.87
2023-02-12T11:29:00.080Z,6.07
2023-02-12T11:31:29.189Z,5.10
2023-02-12T11:34:22.217Z,5.85
2023-02-12T11:36:52.170Z,4.17
2023-02-12T11:39:27.121Z,5.50
2023-02-12T11:41:56.741Z,4.43
2023-02-12T11:44:28.585Z,4.05
2023-02-12T11:47:09.318Z,3.80
2023-02-12T11:49:54.529Z,4.25
2023-02-12T11:52:33.781Z,3.80
2023-02-12T11:55:07.981Z,4.60
2023-02-12T11:57:38.756Z,8.07
2023-02-12T12:00:17.947Z,4.18
2023-02-12T12:02:52.793Z,4.28
2023-02-12T12:05:21.905Z,5.80
2023-02-12T12:07:59.669Z,4.47
2023-02-12T12:10:38.913Z,5.35
2023-02-12T12:13:17.354Z,4.30
2023-02-12T12:16:07.196Z,4.80
2023-02-12T12:19:03.311Z,4.63
2023-02-12T12:21:47.141Z,4.43
2023-02-12T12:24:31.367Z,4.47
2023-02-12T12:27:24.355Z,3.70
2023-02-12T12:29:57.747Z,4.20
2023-02-12T12:32:26.568Z,3.20
2023-02-12T12:34:53.424Z,4.35
2023-02-12T12:38:00.117Z,4.53
2023-02-12T12:41:14.569Z,4.15
2023-02-12T12:44:21.447Z,3.58
2023-02-12T12:47:25.704Z,4.75
2023-02-12T12:50:26.930Z,3.50
2023-02-12T12:53:18.002Z,4.00
2023-02-12T12:55:58.786Z,3.95
2023-02-12T12:58:31.711Z,3.83
2023-02-12T13:01:14.440Z,3.05
2023-02-12T13:04:18.535Z,3.05
2023-02-12T13:07:02.973Z,3.00
2023-02-12T13:10:12.955Z,3.13
2023-02-12T13:12:54.690Z,4.20
2023-02-12T13:15:48.398Z,3.53
2023-02-12T13:18:38.948Z,3.15
2023-02-12T13:21:19.380Z,3.97
2023-02-12T13:23:54.889Z,3.83
2023-02-12T13:26:55.971Z,3.55
2023-02-12T13:29:29.003Z,12.90
2023-02-12T13:32:05.574Z,4.93
2023-02-12T13:34:34.562Z,4.53
2023-02-12T13:37:02.628Z,3.53
2023-02-12T13:39:43.287Z,3.75
2023-02-12T13:42:29.842Z,3.87
2023-02-12T13:45:13.776Z,8.00
2023-02-12T13:48:16.852Z,4.13
2023-02-12T13:51:04.828Z,3.70
2023-02-12T13:53:56.011Z,3.70
2023-02-12T13:56:52.027Z,4.73
2023-02-12T13:59:38.731Z,3.65
2023-02-12T14:02:12.661Z,4.10
2023-02-12T14:04:46.528Z,3.97
2023-02-12T14:07:19.734Z,3.43
2023-02-12T14:09:52.567Z,3.70
2023-02-12T14:12:25.067Z,3.38
2023-02-12T14:15:11.281Z,3.20
2023-02-12T14:17:37.941Z,4.00
2023-02-12T14:20:26.592Z,4.43
2023-02-12T14:23:21.281Z,3.53
2023-02-12T14:26:14.041Z,3.10
2023-02-12T14:28:40.646Z,2.85
2023-02-12T14:31:19.971Z,2.83
2023-02-12T14:34:05.759Z,3.85
2023-02-12T14:36:35.404Z,3.53
2023-02-12T14:39:06.163Z,3.05
2023-02-12T14:41:41.478Z,2.85
2023-02-12T14:44:19.703Z,3.53
2023-02-12T14:47:08.424Z,3.47
2023-02-12T14:49:46.839Z,3.60
2023-02-12T14:52:14.866Z,2.85
2023-02-12T14:55:03.159Z,3.40
2023-02-12T14:57:34.658Z,3.55
2023-02-12T15:00:23.096Z,4.10
2023-02-12T15:02:59.582Z,3.63
2023-02-12T15:05:28.788Z,3.78
2023-02-12T15:08:00.366Z,2.83
2023-02-12T15:10:38.831Z,3.05
2023-02-12T15:13:23.451Z,3.05
2023-02-12T15:16:22.315Z,3.17
2023-02-12T15:19:01.988Z,2.78
2023-02-12T15:21:37.214Z,3.22
2023-02-12T15:24:10.023Z,3.00
2023-02-12T15:26:50.470Z,3.90
2023-02-12T15:29:21.928Z,3.53
2023-02-12T15:31:58.471Z,4.13
2023-02-12T15:34:30.558Z,2.08
2023-02-12T15:37:02.460Z,2.88
2023-02-12T15:39:40.536Z,3.15
2023-02-12T15:42:24.437Z,2.53
2023-02-12T15:44:51.364Z,2.57
2023-02-12T15:47:24.613Z,3.05
2023-02-12T15:49:51.299Z,2.27
2023-02-12T15:52:21.244Z,2.40
2023-02-12T15:54:52.051Z,2.38
2023-02-12T15:57:25.358Z,2.70
2023-02-12T15:59:53.587Z,2.17
2023-02-12T16:02:27.451Z,2.22
2023-02-12T16:04:56.898Z,2.53
2023-02-12T16:07:25.387Z,2.23
2023-02-12T16:09:55.705Z,2.15
2023-02-12T16:12:25.025Z,2.03
2023-02-12T16:14:57.567Z,2.73
2023-02-12T16:17:37.016Z,2.55
2023-02-12T16:20:19.734Z,2.00
2023-02-12T16:22:49.699Z,1.85
2023-02-12T16:25:30.487Z,2.47
2023-02-12T16:28:06.844Z,1.85
2023-02-12T16:30:38.860Z,2.33
2023-02-12T16:33:31.980Z,2.78
2023-02-12T16:36:19.379Z,1.85
2023-02-12T16:39:05.382Z,2.25
2023-02-12T16:41:38.225Z,2.42
2023-02-12T16:44:04.882Z,2.30
2023-02-12T16:46:34.390Z,2.35
2023-02-12T16:49:02.290Z,1.92
2023-02-12T16:51:32.197Z,1.90
2023-02-12T16:54:00.808Z,1.33
2023-02-12T16:56:31.375Z,1.65
2023-02-12T16:59:00.249Z,2.45
2023-02-12T17:01:26.913Z,2.13
2023-02-12T17:03:58.075Z,1.95
2023-02-12T17:06:29.842Z,1.95
2023-02-12T17:08:57.407Z,1.63
2023-02-12T17:11:25.327Z,2.10
2023-02-12T17:13:53.767Z,2.28
2023-02-12T17:16:30.234Z,2.72
2023-02-12T17:18:58.370Z,1.67
2023-02-12T17:21:38.039Z,2.42
2023-02-12T17:24:07.522Z,2.38
2023-02-12T17:26:34.207Z,2.30
2023-02-12T17:29:05.281Z,1.75
2023-02-12T17:31:40.140Z,2.17
2023-02-12T17:34:07.022Z,2.65
2023-02-12T17:36:36.869Z,2.83
2023-02-12T17:39:06.780Z,1.63
2023-02-12T17:41:36.338Z,1.93
2023-02-12T17:44:05.808Z,1.95
2023-02-12T17:46:33.241Z,1.73
2023-02-12T17:49:04.471Z,1.80
2023-02-12T17:51:31.451Z,2.50
2023-02-12T17:53:58.101Z,1.73
2023-02-12T17:56:27.857Z,1.65
2023-02-12T17:58:54.597Z,2.35
2023-02-12T18:01:22.998Z,1.33
2023-02-12T18:03:54.558Z,2.08
2023-02-12T18:06:27.095Z,1.97
2023-02-12T18:09:01.249Z,2.38
2023-02-12T18:11:29.273Z,2.90
2023-02-12T18:13:57.491Z,1.80
2023-02-12T18:16:26.113Z,1.70
2023-02-12T18:18:53.932Z,3.03
2023-02-12T18:21:23.228Z,1.98
2023-02-12T18:23:50.232Z,1.95
2023-02-12T18:26:18.363Z,1.90
2023-02-12T18:28:45.605Z,1.60
2023-02-12T18:31:13.138Z,2.47
2023-02-12T18:33:40.517Z,2.13
2023-02-12T18:36:23.034Z,1.83
2023-02-12T18:38:52.027Z,1.50
2023-02-12T18:41:27.627Z,1.60
2023-02-12T18:43:54.993Z,1.17
2023-02-12T18:46:24.806Z,1.40
2023-02-12T18:48:51.989Z,1.23
2023-02-12T18:51:25.265Z,1.23
2023-02-12T18:53:56.471Z,1.70
2023-02-12T18:56:23.862Z,1.45
2023-02-12T18:58:56.511Z,1.40
2023-02-12T19:01:23.908Z,1.42
2023-02-12T19:03:57.298Z,1.73
2023-02-12T19:06:25.662Z,2.45
2023-02-12T19:08:59.479Z,2.20
2023-02-12T19:11:27.865Z,2.20
2023-02-12T19:13:55.119Z,2.13
2023-02-12T19:16:23.818Z,1.77
2023-02-12T19:18:56.398Z,1.75
2023-02-12T19:21:26.173Z,2.42
2023-02-12T19:24:04.343Z,1.88
2023-02-12T19:26:32.696Z,1.83
2023-02-12T19:29:00.789Z,1.70
2023-02-12T19:31:34.148Z,2.40
2023-02-12T19:34:18.845Z,1.65
2023-02-12T19:36:47.902Z,2.35
2023-02-12T19:39:22.959Z,1.48
2023-02-12T19:41:52.816Z,2.03
2023-02-12T19:44:22.447Z,2.10
2023-02-12T19:46:50.008Z,1.63
2023-02-12T19:49:19.848Z,1.70
2023-02-12T19:51:51.774Z,1.48
2023-02-12T19:54:23.782Z,1.75
2023-02-12T19:56:57.349Z,1.85
2023-02-12T19:59:25.876Z,2.15
2023-02-12T20:01:56.446Z,1.65
2023-02-12T20:04:24.179Z,1.73
2023-02-12T20:09:45.050Z,1.20
2023-02-12T20:12:11.897Z,1.67
2023-02-12T20:14:38.820Z,1.70
2023-02-12T20:17:05.869Z,1.85
2023-02-12T20:19:35.510Z,1.77
2023-02-12T20:22:03.242Z,1.75
2023-02-12T20:24:31.909Z,0.98
2023-02-12T20:27:00.109Z,1.35
2023-02-12T20:29:27.743Z,1.50
2023-02-12T20:31:54.791Z,1.73
2023-02-12T20:34:23.251Z,1.20
2023-02-12T20:36:49.948Z,1.00
2023-02-12T20:39:20.138Z,1.42
2023-02-12T20:41:52.827Z,1.08
2023-02-12T20:44:21.432Z,1.38
2023-02-12T20:46:52.483Z,1.25
2023-02-12T20:49:26.117Z,1.08
2023-02-12T20:51:53.166Z,1.73
2023-02-12T20:54:19.861Z,1.30
2023-02-12T20:56:48.123Z,1.02
2023-02-12T20:59:14.793Z,1.33
2023-02-12T21:01:44.270Z,1.90
2023-02-12T21:04:16.791Z,1.35
2023-02-12T21:06:50.102Z,0.95
2023-02-12T21:09:17.097Z,1.67
2023-02-12T21:11:50.903Z,1.27
2023-02-12T21:14:22.543Z,1.00
2023-02-12T21:16:50.730Z,1.55
2023-02-12T21:19:18.090Z,1.27
2023-02-12T21:21:45.476Z,1.15
2023-02-12T21:24:19.617Z,1.60
2023-02-12T21:26:47.574Z,1.20
2023-02-12T21:29:16.732Z,1.00
2023-02-12T21:31:52.998Z,1.05
2023-02-12T21:34:21.656Z,1.30
2023-02-12T21:36:54.559Z,1.02
2023-02-12T21:39:24.986Z,1.40
2023-02-12T21:41:54.679Z,1.42
2023-02-12T21:44:22.693Z,1.02
2023-02-12T21:46:49.867Z,1.20
2023-02-12T21:49:24.674Z,1.02
2023-02-12T21:52:01.960Z,1.33
2023-02-12T21:54:29.690Z,1.48
2023-02-12T21:56:57.604Z,1.50
2023-02-12T21:59:26.263Z,0.98
2023-02-12T22:01:55.752Z,1.50
2023-02-12T22:04:24.517Z,1.37
2023-02-12T22:06:56.311Z,0.60
2023-02-12T22:09:28.562Z,1.15
2023-02-12T22:11:55.210Z,1.03
2023-02-12T22:14:28.431Z,1.83
2023-02-12T22:16:55.075Z,1.50
2023-02-12T22:19:21.743Z,1.60
2023-02-12T22:21:54.453Z,1.00
2023-02-12T22:24:24.440Z,1.00
2023-02-12T22:26:57.030Z,1.10
2023-02-12T22:29:30.375Z,0.90
2023-02-12T22:31:57.324Z,0.95
2023-02-12T22:34:29.845Z,1.13
2023-02-12T22:36:56.553Z,1.00
2023-02-12T22:39:27.506Z,0.93
2023-02-12T22:41:57.431Z,1.15
2023-02-12T22:44:24.190Z,1.55
2023-02-12T22:46:50.919Z,1.30
2023-02-12T22:49:22.939Z,0.95
2023-02-12T22:51:55.426Z,0.93
2023-02-12T22:54:22.233Z,1.35
2023-02-12T22:56:58.125Z,1.67
2023-02-12T22:59:24.858Z,1.20
2023-02-12T23:01:51.549Z,1.30
2023-02-12T23:04:18.949Z,1.20
2023-02-12T23:06:46.498Z,1.10
2023-02-12T23:09:20.001Z,1.08
2023-02-12T23:11:47.983Z,1.20
2023-02-12T23:14:14.870Z,0.90
2023-02-12T23:16:41.601Z,1.33
2023-02-12T23:19:10.932Z,1.03
2023-02-12T23:24:28.348Z,1.25
2023-02-12T23:26:55.068Z,1.40
2023-02-12T23:29:24.252Z,1.80
2023-02-12T23:31:51.696Z,1.02
2023-02-12T23:34:18.497Z,1.50
2023-02-12T23:36:51.216Z,0.90
2023-02-12T23:39:17.983Z,1.13
2023-02-12T23:41:45.795Z,0.98
2023-02-12T23:44:12.614Z,1.15
2023-02-12T23:46:44.797Z,1.17
2023-02-12T23:49:11.463Z,1.17
2023-02-12T23:51:38.120Z,1.17
2023-02-12T23:54:05.135Z,1.27
2023-02-12T23:56:36.618Z,1.65
2023-02-12T23:59:03.376Z,0.80
